createdAt,value
2017-02-05T00:00:08.273Z,944.74
2017-02-05T00:01:07.788Z,944.84
2017-02-05T00:02:07.273Z,944.85
2017-02-05T00:03:07.848Z,944.80
2017-02-05T00:04:07.378Z,944.82
2017-02-05T00:05:07.960Z,944.89
2017-02-05T00:06:07.546Z,944.88
2017-02-05T00:07:08.276Z,944.89
2017-02-05T00:08:07.918Z,944.88
2017-02-05T00:09:07.531Z,944.93
2017-02-05T00:10:08.323Z,944.91
2017-02-05T00:11:07.972Z,944.99
2017-02-05T00:12:07.512Z,945.02
2017-02-05T00:13:08.128Z,945.06
2017-02-05T00:14:07.745Z,945.06
2017-02-05T00:15:08.274Z,944.99
2017-02-05T00:16:07.774Z,945.08
2017-02-05T00:17:07.562Z,944.99
2017-02-05T00:18:08.331Z,945.02
2017-02-05T00:19:07.890Z,945.02
2017-02-05T00:20:07.521Z,944.97
2017-02-05T00:21:07.968Z,945.02
2017-02-05T00:22:07.614Z,945.01
2017-02-05T00:23:08.150Z,944.98
2017-02-05T00:24:07.950Z,945.03
2017-02-05T00:25:08.332Z,945.00
2017-02-05T00:26:07.844Z,945.00
2017-02-05T00:27:07.365Z,944.99
2017-02-05T00:28:08.215Z,944.93
2017-02-05T00:29:07.789Z,945.04
2017-02-05T00:30:07.303Z,944.97
2017-02-05T00:31:07.795Z,944.91
2017-02-05T00:32:08.204Z,944.92
2017-02-05T00:33:07.747Z,944.91
2017-02-05T00:34:07.334Z,944.89
2017-02-05T00:35:08.057Z,944.86
2017-02-05T00:36:07.638Z,944.89
2017-02-05T00:37:08.224Z,944.87
2017-02-05T00:38:07.735Z,944.88
2017-02-05T00:39:08.280Z,944.86
2017-02-05T00:40:07.810Z,944.85
2017-02-05T00:41:07.340Z,944.90
2017-02-05T00:42:07.866Z,944.90
2017-02-05T00:43:07.965Z,944.99
2017-02-05T00:44:07.489Z,944.96
2017-02-05T00:45:08.127Z,944.96
2017-02-05T00:46:07.695Z,944.94
2017-02-05T00:47:08.294Z,944.96
2017-02-05T00:48:08.097Z,944.99
2017-02-05T00:49:07.695Z,944.97
2017-02-05T00:50:08.283Z,945.02
2017-02-05T00:51:07.850Z,944.98
2017-02-05T00:52:07.439Z,945.04
2017-02-05T00:53:07.974Z,944.98
2017-02-05T00:54:07.614Z,944.98
2017-02-05T00:55:08.269Z,945.02
2017-02-05T00:56:07.744Z,945.04
2017-02-05T00:57:08.575Z,945.06
2017-02-05T00:58:08.203Z,945.06
2017-02-05T00:59:07.813Z,945.00
2017-02-05T01:00:07.266Z,945.05
2017-02-05T01:01:07.739Z,945.08
2017-02-05T01:02:08.074Z,945.08
2017-02-05T01:03:07.599Z,945.11
2017-02-05T01:04:08.109Z,945.08
2017-02-05T01:05:07.813Z,945.06
2017-02-05T01:06:07.342Z,945.12
2017-02-05T01:07:07.933Z,945.13
2017-02-05T01:08:07.524Z,945.08
2017-02-05T01:09:08.035Z,945.15
2017-02-05T01:10:07.589Z,945.17
2017-02-05T01:11:08.190Z,945.13
2017-02-05T01:12:08.026Z,945.12
2017-02-05T01:13:07.511Z,945.11
2017-02-05T01:14:08.965Z,945.10
2017-02-05T01:15:08.149Z,945.11
2017-02-05T01:16:07.746Z,945.10
2017-02-05T01:17:09.561Z,945.13
2017-02-05T01:18:08.102Z,945.18
2017-02-05T01:19:07.601Z,945.20
2017-02-05T01:20:18.095Z,945.26
2017-02-05T01:21:07.649Z,945.22
2017-02-05T01:22:08.210Z,945.21
2017-02-05T01:23:07.328Z,945.18
2017-02-05T01:24:07.941Z,945.27
2017-02-05T01:25:07.577Z,945.26
2017-02-05T01:26:08.140Z,945.24
2017-02-05T01:27:07.895Z,945.29
2017-02-05T01:28:07.486Z,945.27
2017-02-05T01:29:07.990Z,945.28
2017-02-05T01:30:07.744Z,945.32
2017-02-05T01:31:08.350Z,945.26
2017-02-05T01:32:07.978Z,945.30
2017-02-05T01:33:07.470Z,945.33
2017-02-05T01:34:08.041Z,945.38
2017-02-05T01:35:07.620Z,945.33
2017-02-05T01:36:08.461Z,945.35
2017-02-05T01:37:08.040Z,945.37
2017-02-05T01:38:07.704Z,945.37
2017-02-05T01:39:08.245Z,945.39
2017-02-05T01:40:07.872Z,945.28
2017-02-05T01:41:07.564Z,945.32
2017-02-05T01:42:08.103Z,945.32
2017-02-05T01:43:07.734Z,945.30
2017-02-05T01:44:08.304Z,945.38
2017-02-05T01:45:07.884Z,945.37
2017-02-05T01:46:07.368Z,945.39
2017-02-05T01:47:08.039Z,945.41
2017-02-05T01:48:07.596Z,945.38
2017-02-05T01:49:08.062Z,945.42
2017-02-05T01:50:08.146Z,945.40
2017-02-05T01:51:07.751Z,945.41
2017-02-05T01:52:08.234Z,945.39
2017-02-05T01:53:07.975Z,945.43
2017-02-05T01:54:07.626Z,945.47
2017-02-05T01:55:08.194Z,945.42
2017-02-05T01:56:07.798Z,945.43
2017-02-05T01:57:07.349Z,945.46
2017-02-05T01:58:07.902Z,945.47
2017-02-05T01:59:07.473Z,945.41
2017-02-05T02:00:08.014Z,945.47
2017-02-05T02:01:07.592Z,945.41
2017-02-05T02:02:08.448Z,945.38
2017-02-05T02:03:08.018Z,945.43
2017-02-05T02:04:07.643Z,945.39
2017-02-05T02:05:08.102Z,945.44
2017-02-05T02:06:07.897Z,945.44
2017-02-05T02:07:07.426Z,945.39
2017-02-05T02:08:08.014Z,945.39
2017-02-05T02:09:07.533Z,945.42
2017-02-05T02:10:08.099Z,945.42
2017-02-05T02:11:07.652Z,945.41
2017-02-05T02:12:08.464Z,945.50
2017-02-05T02:13:08.399Z,945.42
2017-02-05T02:14:07.977Z,945.48
2017-02-05T02:15:07.564Z,945.48
2017-02-05T02:16:08.072Z,945.52
2017-02-05T02:17:07.981Z,945.43
2017-02-05T02:18:07.515Z,945.52
2017-02-05T02:19:08.063Z,945.47
2017-02-05T02:20:07.593Z,945.47
2017-02-05T02:21:08.377Z,945.49
2017-02-05T02:22:08.053Z,945.53
2017-02-05T02:23:07.617Z,945.58
2017-02-05T02:24:08.191Z,945.46
2017-02-05T02:25:07.788Z,945.52
2017-02-05T02:26:07.361Z,945.47
2017-02-05T02:27:08.138Z,945.46
2017-02-05T02:28:07.686Z,945.60
2017-02-05T02:29:08.238Z,945.50
2017-02-05T02:30:07.823Z,945.49
2017-02-05T02:31:07.715Z,945.44
2017-02-05T02:32:08.293Z,945.42
2017-02-05T02:33:07.878Z,945.45
2017-02-05T02:34:07.456Z,945.48
2017-02-05T02:35:08.109Z,945.50
2017-02-05T02:36:07.569Z,945.51
2017-02-05T02:37:08.152Z,945.55
2017-02-05T02:38:07.731Z,945.50
2017-02-05T02:39:08.296Z,945.51
2017-02-05T02:40:07.871Z,945.53
2017-02-05T02:41:07.445Z,945.52
2017-02-05T02:42:07.919Z,945.55
2017-02-05T02:43:07.377Z,945.51
2017-02-05T02:44:07.866Z,945.49
2017-02-05T02:45:07.655Z,945.51
2017-02-05T02:46:08.210Z,945.54
2017-02-05T02:47:07.905Z,945.48
2017-02-05T02:48:07.393Z,945.55
2017-02-05T02:49:07.878Z,945.54
2017-02-05T02:50:07.455Z,945.59
2017-02-05T02:51:08.133Z,945.58
2017-02-05T02:52:07.617Z,945.54
2017-02-05T02:53:08.212Z,945.55
2017-02-05T02:54:07.812Z,945.52
2017-02-05T02:55:07.385Z,945.56
2017-02-05T02:56:08.007Z,945.50
2017-02-05T02:57:07.748Z,945.55
2017-02-05T02:58:08.274Z,945.54
2017-02-05T02:59:07.870Z,945.55
2017-02-05T03:00:07.407Z,945.51
2017-02-05T03:01:08.105Z,945.52
2017-02-05T03:02:07.769Z,945.46
2017-02-05T03:03:07.377Z,945.46
2017-02-05T03:04:08.189Z,945.48
2017-02-05T03:05:07.759Z,945.51
2017-02-05T03:06:08.327Z,945.57
2017-02-05T03:07:07.881Z,945.55
2017-02-05T03:08:07.620Z,945.52
2017-02-05T03:09:08.138Z,945.56
2017-02-05T03:10:07.687Z,945.52
2017-02-05T03:11:08.243Z,945.51
2017-02-05T03:12:07.770Z,945.54
2017-02-05T03:13:07.340Z,945.55
2017-02-05T03:14:07.966Z,945.54
2017-02-05T03:15:07.513Z,945.54
2017-02-05T03:16:08.061Z,945.59
2017-02-05T03:17:07.908Z,945.55
2017-02-05T03:18:07.626Z,945.51
2017-02-05T03:19:08.106Z,945.52
2017-02-05T03:20:07.792Z,945.52
2017-02-05T03:21:07.276Z,945.55
2017-02-05T03:22:08.027Z,945.51
2017-02-05T03:23:07.651Z,945.49
2017-02-05T03:24:08.232Z,945.47
2017-02-05T03:25:07.858Z,945.46
2017-02-05T03:26:07.468Z,945.51
2017-02-05T03:27:07.969Z,945.44
2017-02-05T03:28:07.570Z,945.47
2017-02-05T03:29:08.060Z,945.46
2017-02-05T03:30:07.619Z,945.47
2017-02-05T03:31:08.187Z,945.45
2017-02-05T03:32:07.733Z,945.46
2017-02-05T03:33:08.190Z,945.43
2017-02-05T03:34:07.703Z,945.41
2017-02-05T03:35:08.248Z,945.41
2017-02-05T03:36:08.040Z,945.44
2017-02-05T03:37:07.621Z,945.42
2017-02-05T03:38:08.151Z,945.41
2017-02-05T03:39:07.929Z,945.44
2017-02-05T03:40:07.581Z,945.46
2017-02-05T03:41:08.201Z,945.44
2017-02-05T03:42:07.760Z,945.46
2017-02-05T03:43:07.278Z,945.47
2017-02-05T03:44:08.752Z,945.42
2017-02-05T03:45:08.267Z,945.43
2017-02-05T03:46:07.892Z,945.42
2017-02-05T03:47:07.602Z,945.45
2017-02-05T03:48:08.292Z,945.45
2017-02-05T03:49:07.787Z,945.46
2017-02-05T03:50:07.343Z,945.44
2017-02-05T03:51:07.989Z,945.47
2017-02-05T03:52:07.517Z,945.49
2017-02-05T03:53:08.135Z,945.48
2017-02-05T03:54:07.707Z,945.50
2017-02-05T03:55:08.592Z,945.48
2017-02-05T03:56:08.537Z,945.48
2017-02-05T03:57:08.160Z,945.50
2017-02-05T03:58:07.747Z,945.46
2017-02-05T03:59:08.261Z,945.48
2017-02-05T04:00:07.786Z,945.46
2017-02-05T04:01:07.399Z,945.46
2017-02-05T04:02:08.043Z,945.49
2017-02-05T04:03:07.596Z,945.47
2017-02-05T04:04:08.145Z,945.49
2017-02-05T04:05:07.678Z,945.51
2017-02-05T04:06:08.223Z,945.48
2017-02-05T04:07:07.764Z,945.41
2017-02-05T04:08:08.438Z,945.40
2017-02-05T04:09:07.951Z,945.43
2017-02-05T04:10:07.647Z,945.37
2017-02-05T04:11:08.690Z,945.40
2017-02-05T04:12:08.222Z,945.39
2017-02-05T04:13:07.741Z,945.39
2017-02-05T04:14:08.306Z,945.41
2017-02-05T04:15:07.871Z,945.39
2017-02-05T04:16:07.504Z,945.34
2017-02-05T04:17:08.368Z,945.41
2017-02-05T04:18:17.840Z,945.36
2017-02-05T04:19:07.372Z,945.40
2017-02-05T04:20:07.929Z,945.42
2017-02-05T04:21:07.520Z,945.40
2017-02-05T04:22:08.257Z,945.37
2017-02-05T04:23:08.130Z,945.42
2017-02-05T04:24:07.618Z,945.48
2017-02-05T04:25:08.131Z,945.38
2017-02-05T04:26:07.860Z,945.45
2017-02-05T04:27:07.498Z,945.38
2017-02-05T04:28:08.116Z,945.40
2017-02-05T04:29:07.663Z,945.39
2017-02-05T04:30:07.871Z,945.39
2017-02-05T04:31:07.361Z,945.39
2017-02-05T04:32:07.882Z,945.37
2017-02-05T04:33:07.656Z,945.37
2017-02-05T04:34:08.222Z,945.31
2017-02-05T04:35:07.736Z,945.29
2017-02-05T04:36:08.191Z,945.26
2017-02-05T04:37:07.886Z,945.24
2017-02-05T04:38:07.632Z,945.22
2017-02-05T04:39:08.223Z,945.23
2017-02-05T04:40:07.776Z,945.21
2017-02-05T04:41:07.439Z,945.23
2017-02-05T04:42:07.993Z,945.21
2017-02-05T04:43:07.615Z,945.23
2017-02-05T04:44:08.262Z,945.20
2017-02-05T04:45:07.865Z,945.22
2017-02-05T04:46:07.607Z,945.31
2017-02-05T04:47:08.343Z,945.27
2017-02-05T04:48:07.912Z,945.29
2017-02-05T04:49:07.611Z,945.22
2017-02-05T04:50:08.322Z,945.28
2017-02-05T04:51:07.916Z,945.27
2017-02-05T04:52:07.572Z,945.19
2017-02-05T04:53:08.340Z,945.22
2017-02-05T04:54:07.813Z,945.20
2017-02-05T04:55:07.311Z,945.23
2017-02-05T04:56:07.846Z,945.21
2017-02-05T04:57:07.676Z,945.27
2017-02-05T04:58:08.302Z,945.29
2017-02-05T04:59:07.861Z,945.24
2017-02-05T05:00:07.492Z,945.23
2017-02-05T05:01:07.979Z,945.16
2017-02-05T05:02:07.520Z,945.20
2017-02-05T05:03:08.156Z,945.17
2017-02-05T05:04:07.702Z,945.14
2017-02-05T05:05:08.198Z,945.11
2017-02-05T05:06:07.691Z,945.13
2017-02-05T05:07:08.262Z,945.11
2017-02-05T05:08:07.829Z,945.07
2017-02-05T05:09:07.339Z,945.11
2017-02-05T05:10:07.934Z,945.10
2017-02-05T05:11:07.511Z,945.06
2017-02-05T05:12:08.060Z,945.09
2017-02-05T05:13:07.643Z,945.05
2017-02-05T05:14:08.241Z,945.05
2017-02-05T05:15:08.005Z,945.00
2017-02-05T05:16:07.488Z,944.97
2017-02-05T05:17:08.271Z,944.95
2017-02-05T05:18:07.777Z,944.94
2017-02-05T05:19:07.557Z,944.93
2017-02-05T05:20:08.221Z,944.93
2017-02-05T05:21:07.922Z,944.89
2017-02-05T05:22:08.340Z,944.91
2017-02-05T05:23:07.915Z,944.96
2017-02-05T05:24:07.455Z,944.95
2017-02-05T05:25:10.875Z,944.94
2017-02-05T05:26:07.852Z,944.94
2017-02-05T05:27:07.485Z,944.98
2017-02-05T05:28:08.048Z,944.93
2017-02-05T05:29:07.783Z,944.99
2017-02-05T05:30:07.346Z,944.96
2017-02-05T05:31:07.944Z,944.98
2017-02-05T05:32:07.500Z,944.93
2017-02-05T05:33:07.993Z,944.96
2017-02-05T05:34:07.538Z,944.90
2017-02-05T05:35:08.050Z,944.95
2017-02-05T05:36:07.587Z,944.91
2017-02-05T05:37:08.100Z,944.96
2017-02-05T05:38:07.674Z,944.93
2017-02-05T05:39:08.361Z,945.00
2017-02-05T05:40:08.225Z,944.98
2017-02-05T05:41:07.753Z,944.99
2017-02-05T05:42:08.591Z,945.00
2017-02-05T05:43:08.144Z,945.04
2017-02-05T05:44:07.668Z,945.05
2017-02-05T05:45:08.215Z,945.08
2017-02-05T05:46:07.847Z,945.10
2017-02-05T05:47:09.025Z,945.15
2017-02-05T05:48:27.151Z,945.11
2017-02-05T05:49:07.690Z,945.12
2017-02-05T05:50:08.324Z,945.07
2017-02-05T05:51:07.896Z,945.07
2017-02-05T05:52:07.516Z,945.07
2017-02-05T05:53:07.893Z,945.06
2017-02-05T05:54:07.393Z,945.10
2017-02-05T05:55:08.007Z,945.07
2017-02-05T05:56:07.820Z,945.12
2017-02-05T05:57:07.353Z,945.11
2017-02-05T05:58:07.927Z,945.09
2017-02-05T05:59:07.474Z,945.11
2017-02-05T06:00:08.451Z,945.19
2017-02-05T06:01:08.372Z,945.14
2017-02-05T06:02:07.998Z,945.12
2017-02-05T06:03:07.606Z,945.10
2017-02-05T06:04:08.359Z,945.11
2017-02-05T06:05:07.879Z,945.11
2017-02-05T06:06:07.440Z,945.07
2017-02-05T06:07:08.201Z,945.02
2017-02-05T06:08:07.721Z,945.00
2017-02-05T06:09:08.211Z,945.00
2017-02-05T06:10:07.709Z,945.01
2017-02-05T06:11:08.459Z,944.99
2017-02-05T06:12:08.047Z,944.98
2017-02-05T06:13:07.617Z,945.00
2017-02-05T06:14:08.355Z,944.99
2017-02-05T06:15:08.061Z,944.95
2017-02-05T06:16:07.654Z,944.97
2017-02-05T06:17:08.512Z,944.93
2017-02-05T06:18:08.147Z,944.98
2017-02-05T06:19:07.909Z,944.98
2017-02-05T06:20:07.545Z,944.98
2017-02-05T06:21:08.090Z,944.97
2017-02-05T06:22:07.647Z,945.00
2017-02-05T06:23:08.201Z,944.97
2017-02-05T06:24:07.707Z,944.97
2017-02-05T06:25:08.315Z,944.97
2017-02-05T06:26:07.805Z,944.98
2017-02-05T06:27:07.323Z,944.97
2017-02-05T06:28:07.868Z,945.01
2017-02-05T06:29:07.566Z,944.99
2017-02-05T06:30:08.047Z,945.01
2017-02-05T06:31:07.642Z,945.02
2017-02-05T06:32:08.167Z,945.08
2017-02-05T06:33:07.981Z,945.06
2017-02-05T06:34:07.484Z,945.06
2017-02-05T06:35:07.993Z,945.06
2017-02-05T06:36:07.779Z,945.06
2017-02-05T06:37:07.284Z,945.07
2017-02-05T06:38:07.869Z,945.05
2017-02-05T06:39:07.437Z,945.03
2017-02-05T06:40:08.174Z,945.05
2017-02-05T06:41:07.335Z,945.06
2017-02-05T06:42:08.098Z,945.10
2017-02-05T06:43:07.740Z,945.14
2017-02-05T06:44:08.332Z,945.18
2017-02-05T06:45:07.854Z,945.14
2017-02-05T06:46:07.348Z,945.23
2017-02-05T06:47:08.163Z,945.23
2017-02-05T06:48:07.701Z,945.20
2017-02-05T06:49:08.212Z,945.19
2017-02-05T06:50:07.868Z,945.18
2017-02-05T06:51:07.426Z,945.25
2017-02-05T06:52:08.002Z,945.20
2017-02-05T06:53:07.539Z,945.21
2017-02-05T06:54:08.317Z,945.25
2017-02-05T06:55:07.775Z,945.25
2017-02-05T06:56:07.620Z,945.22
2017-02-05T06:57:08.159Z,945.21
2017-02-05T06:58:07.761Z,945.18
2017-02-05T06:59:07.327Z,945.19
2017-02-05T07:00:07.854Z,945.18
2017-02-05T07:01:07.447Z,945.17
2017-02-05T07:02:08.023Z,945.17
2017-02-05T07:03:07.645Z,945.16
2017-02-05T07:04:08.191Z,945.16
2017-02-05T07:05:07.629Z,945.04
2017-02-05T07:06:07.866Z,945.03
2017-02-05T07:07:07.460Z,945.05
2017-02-05T07:08:07.899Z,945.00
2017-02-05T07:09:07.440Z,945.00
2017-02-05T07:10:07.869Z,944.98
2017-02-05T07:11:07.729Z,944.96
2017-02-05T07:12:08.309Z,944.94
2017-02-05T07:13:07.959Z,944.94
2017-02-05T07:14:07.516Z,944.91
2017-02-05T07:15:08.143Z,944.95
2017-02-05T07:16:07.869Z,944.97
2017-02-05T07:17:07.756Z,944.97
2017-02-05T07:18:17.268Z,944.96
2017-02-05T07:19:07.894Z,944.99
2017-02-05T07:20:07.481Z,944.90
2017-02-05T07:21:08.192Z,944.91
2017-02-05T07:22:07.696Z,944.91
2017-02-05T07:23:08.288Z,944.91
2017-02-05T07:24:07.849Z,944.88
2017-02-05T07:25:07.402Z,944.89
2017-02-05T07:26:07.956Z,944.86
2017-02-05T07:27:07.526Z,944.83
2017-02-05T07:28:08.157Z,944.84
2017-02-05T07:29:07.768Z,944.83
2017-02-05T07:30:07.620Z,944.80
2017-02-05T07:31:08.076Z,944.84
2017-02-05T07:32:07.720Z,944.86
2017-02-05T07:33:08.220Z,944.85
2017-02-05T07:34:07.887Z,944.88
2017-02-05T07:35:07.374Z,944.90
2017-02-05T07:36:07.975Z,944.81
2017-02-05T07:37:07.497Z,944.79
2017-02-05T07:38:08.475Z,944.77
2017-02-05T07:39:08.020Z,944.73
2017-02-05T07:40:07.523Z,944.72
2017-02-05T07:41:08.024Z,944.69
2017-02-05T07:42:07.747Z,944.68
2017-02-05T07:43:07.593Z,944.68
2017-02-05T07:44:08.282Z,944.65
2017-02-05T07:45:08.160Z,944.61
2017-02-05T07:46:07.636Z,944.60
2017-02-05T07:47:08.294Z,944.56
2017-02-05T07:48:07.821Z,944.55
2017-02-05T07:49:07.395Z,944.49
2017-02-05T07:50:07.971Z,944.57
2017-02-05T07:51:07.640Z,944.50
2017-02-05T07:52:08.257Z,944.47
2017-02-05T07:53:08.052Z,944.47
2017-02-05T07:54:08.022Z,944.41
2017-02-05T07:55:07.861Z,944.42
2017-02-05T07:56:07.445Z,944.43
2017-02-05T07:57:08.115Z,944.37
2017-02-05T07:58:07.579Z,944.39
2017-02-05T07:59:07.835Z,944.39
2017-02-05T08:00:07.389Z,944.34
2017-02-05T08:01:07.954Z,944.40
2017-02-05T08:02:07.454Z,944.34
2017-02-05T08:03:08.042Z,944.37
2017-02-05T08:04:07.801Z,944.35
2017-02-05T08:05:07.560Z,944.32
2017-02-05T08:06:08.224Z,944.28
2017-02-05T08:07:07.846Z,944.27
2017-02-05T08:08:07.459Z,944.27
2017-02-05T08:09:08.160Z,944.25
2017-02-05T08:10:07.817Z,944.23
2017-02-05T08:11:07.246Z,944.24
2017-02-05T08:12:07.941Z,944.22
2017-02-05T08:13:07.533Z,944.22
2017-02-05T08:14:08.122Z,944.19
2017-02-05T08:15:07.726Z,944.14
2017-02-05T08:16:08.528Z,944.14
2017-02-05T08:17:08.393Z,944.12
2017-02-05T08:18:08.024Z,944.10
2017-02-05T08:19:07.614Z,944.13
2017-02-05T08:20:08.562Z,944.05
2017-02-05T08:21:08.099Z,944.09
2017-02-05T08:22:07.723Z,944.05
2017-02-05T08:23:08.462Z,943.99
2017-02-05T08:24:08.055Z,943.98
2017-02-05T08:25:07.617Z,943.94
2017-02-05T08:26:08.468Z,943.90
2017-02-05T08:27:08.289Z,943.85
2017-02-05T08:28:07.868Z,943.85
2017-02-05T08:29:08.465Z,943.78
2017-02-05T08:30:08.439Z,943.76
2017-02-05T08:31:07.914Z,943.70
2017-02-05T08:32:24.347Z,943.68
2017-02-05T08:33:08.132Z,943.70
2017-02-05T08:34:07.728Z,943.74
2017-02-05T08:35:09.628Z,943.79
2017-02-05T08:36:10.636Z,943.76
2017-02-05T08:37:17.004Z,943.74
2017-02-05T08:39:25.589Z,943.70
2017-02-05T08:40:28.429Z,943.68
2017-02-05T08:42:08.232Z,943.70
2017-02-05T08:43:07.876Z,943.69
2017-02-05T08:44:07.543Z,943.69
2017-02-05T08:45:08.133Z,943.70
2017-02-05T08:46:07.776Z,943.67
2017-02-05T08:47:07.494Z,943.68
2017-02-05T08:48:17.994Z,943.65
2017-02-05T08:49:07.727Z,943.60
2017-02-05T08:50:08.283Z,943.61
2017-02-05T08:51:07.759Z,943.63
2017-02-05T08:52:07.286Z,943.61
2017-02-05T08:53:07.841Z,943.54
2017-02-05T08:54:07.563Z,943.54
2017-02-05T08:55:25.979Z,943.52
2017-02-05T08:56:07.963Z,943.44
2017-02-05T08:57:08.069Z,943.43
2017-02-05T08:58:07.771Z,943.39
2017-02-05T08:59:07.328Z,943.35
2017-02-05T09:00:07.892Z,943.33
2017-02-05T09:01:07.505Z,943.30
2017-02-05T09:02:07.621Z,943.26
2017-02-05T09:03:08.321Z,943.21
2017-02-05T09:04:09.150Z,943.19
2017-02-05T09:05:07.908Z,943.13
2017-02-05T09:06:07.566Z,943.13
2017-02-05T09:07:08.339Z,943.13
2017-02-05T09:08:28.634Z,943.12
2017-02-05T09:09:24.085Z,943.11
2017-02-05T09:10:16.050Z,943.08
2017-02-05T09:11:07.706Z,943.10
2017-02-05T09:12:08.281Z,943.09
2017-02-05T09:13:07.860Z,943.09
2017-02-05T09:14:07.301Z,943.06
2017-02-05T09:15:07.964Z,943.02
2017-02-05T09:16:07.563Z,943.05
2017-02-05T09:17:09.426Z,942.98
2017-02-05T09:18:17.866Z,942.97
2017-02-05T09:19:07.622Z,942.97
2017-02-05T09:20:08.196Z,942.94
2017-02-05T09:21:07.704Z,942.87
2017-02-05T09:22:08.232Z,942.86
2017-02-05T09:23:07.824Z,942.87
2017-02-05T09:24:07.286Z,942.83
2017-02-05T09:26:02.860Z,942.83
2017-02-05T09:26:08.062Z,942.83
2017-02-05T09:27:07.546Z,942.77
2017-02-05T09:28:08.104Z,942.79
2017-02-05T09:29:08.014Z,942.75
2017-02-05T09:30:08.700Z,942.73
2017-02-05T09:31:08.245Z,942.76
2017-02-05T09:32:07.597Z,942.73
2017-02-05T09:33:08.293Z,942.69
2017-02-05T09:34:07.776Z,942.69
2017-02-05T09:35:07.340Z,942.70
2017-02-05T09:36:08.409Z,942.69
2017-02-05T09:37:07.965Z,942.70
2017-02-05T09:38:07.552Z,942.67
2017-02-05T09:39:08.120Z,942.67
2017-02-05T09:40:07.708Z,942.62
2017-02-05T09:41:08.313Z,942.60
2017-02-05T09:42:08.046Z,942.58
2017-02-05T09:43:07.690Z,942.48
2017-02-05T09:44:08.471Z,942.47
2017-02-05T09:45:08.024Z,942.44
2017-02-05T09:46:07.528Z,942.41
2017-02-05T09:47:08.255Z,942.39
2017-02-05T09:48:08.699Z,942.34
2017-02-05T09:49:08.654Z,942.39
2017-02-05T09:50:09.132Z,942.29
2017-02-05T09:51:07.744Z,942.29
2017-02-05T09:52:08.481Z,942.27
2017-02-05T09:53:08.002Z,942.22
2017-02-05T09:54:07.617Z,942.26
2017-02-05T09:55:08.327Z,942.14
2017-02-05T09:56:07.920Z,942.15
2017-02-05T09:57:07.587Z,942.13
2017-02-05T09:58:08.177Z,942.09
2017-02-05T09:59:07.841Z,942.05
2017-02-05T10:00:07.514Z,942.05
2017-02-05T10:01:08.088Z,941.99
2017-02-05T10:02:07.913Z,941.99
2017-02-05T10:03:25.315Z,941.95
2017-02-05T10:04:07.965Z,941.93
2017-02-05T10:05:07.505Z,941.94
2017-02-05T10:06:08.148Z,941.94
2017-02-05T10:07:07.765Z,941.93
2017-02-05T10:08:07.424Z,941.93
2017-02-05T10:09:08.165Z,941.92
2017-02-05T10:10:07.642Z,941.92
2017-02-05T10:11:08.331Z,941.92
2017-02-05T10:12:08.076Z,941.90
2017-02-05T10:13:08.014Z,941.94
2017-02-05T10:14:07.505Z,941.92
2017-02-05T10:15:08.032Z,941.87
2017-02-05T10:16:07.614Z,941.84
2017-02-05T10:17:08.425Z,941.81
2017-02-05T10:18:07.966Z,941.83
2017-02-05T10:19:07.431Z,941.79
2017-02-05T10:20:07.945Z,941.81
2017-02-05T10:21:07.470Z,941.81
2017-02-05T10:22:08.009Z,941.75
2017-02-05T10:23:07.562Z,941.82
2017-02-05T10:24:09.002Z,941.85
2017-02-05T10:25:07.795Z,941.87
2017-02-05T10:26:07.301Z,941.88
2017-02-05T10:27:07.817Z,941.92
2017-02-05T10:28:07.463Z,941.88
2017-02-05T10:29:08.111Z,941.92
2017-02-05T10:30:07.604Z,941.90
2017-02-05T10:31:08.092Z,941.85
2017-02-05T10:32:07.634Z,941.86
2017-02-05T10:33:08.228Z,941.84
2017-02-05T10:34:07.740Z,941.83
2017-02-05T10:35:08.283Z,941.77
2017-02-05T10:36:07.765Z,941.76
2017-02-05T10:37:07.348Z,941.72
2017-02-05T10:38:07.884Z,941.77
2017-02-05T10:39:07.663Z,941.76
2017-02-05T10:40:08.142Z,941.80
2017-02-05T10:41:07.765Z,941.76
2017-02-05T10:42:07.541Z,941.80
2017-02-05T10:43:08.043Z,941.80
2017-02-05T10:44:07.396Z,941.87
2017-02-05T10:45:08.131Z,941.84
2017-02-05T10:46:07.635Z,941.84
2017-02-05T10:47:08.363Z,941.81
2017-02-05T10:48:07.916Z,941.75
2017-02-05T10:49:07.500Z,941.79
2017-02-05T10:50:08.063Z,941.81
2017-02-05T10:51:07.827Z,941.79
2017-02-05T10:52:07.367Z,941.78
2017-02-05T10:53:07.929Z,941.81
2017-02-05T10:54:07.601Z,941.76
2017-02-05T10:55:08.082Z,941.75
2017-02-05T10:56:07.690Z,941.83
2017-02-05T10:57:08.245Z,941.81
2017-02-05T10:58:07.771Z,941.87
2017-02-05T10:59:07.290Z,941.83
2017-02-05T11:00:07.861Z,941.89
2017-02-05T11:01:07.481Z,941.91
2017-02-05T11:02:08.046Z,941.87
2017-02-05T11:03:07.608Z,941.83
2017-02-05T11:04:08.174Z,941.80
2017-02-05T11:05:08.001Z,941.75
2017-02-05T11:06:09.148Z,941.73
2017-02-05T11:07:08.305Z,941.68
2017-02-05T11:08:07.828Z,941.69
2017-02-05T11:09:07.387Z,941.67
2017-02-05T11:10:07.944Z,941.62
2017-02-05T11:11:07.492Z,941.58
2017-02-05T11:12:08.300Z,941.62
2017-02-05T11:13:07.931Z,941.62
2017-02-05T11:14:07.420Z,941.64
2017-02-05T11:15:07.908Z,941.67
2017-02-05T11:16:07.429Z,941.65
2017-02-05T11:17:08.218Z,941.64
2017-02-05T11:18:07.965Z,941.63
2017-02-05T11:19:07.456Z,941.61
2017-02-05T11:20:08.150Z,941.66
2017-02-05T11:21:07.677Z,941.57
2017-02-05T11:22:08.185Z,941.58
2017-02-05T11:23:07.822Z,941.53
2017-02-05T11:24:07.402Z,941.55
2017-02-05T11:25:08.088Z,941.56
2017-02-05T11:26:07.643Z,941.56
2017-02-05T11:27:08.163Z,941.60
2017-02-05T11:28:07.794Z,941.58
2017-02-05T11:29:07.338Z,941.54
2017-02-05T11:30:07.879Z,941.56
2017-02-05T11:31:07.428Z,941.52
2017-02-05T11:32:07.944Z,941.57
2017-02-05T11:33:07.429Z,941.57
2017-02-05T11:34:08.005Z,941.54
2017-02-05T11:35:07.627Z,941.52
2017-02-05T11:36:08.228Z,941.51
2017-02-05T11:37:07.752Z,941.50
2017-02-05T11:38:08.358Z,941.53
2017-02-05T11:39:07.875Z,941.50
2017-02-05T11:40:07.378Z,941.49
2017-02-05T11:41:07.897Z,941.43
2017-02-05T11:42:07.504Z,941.39
2017-02-05T11:43:07.695Z,941.40
2017-02-05T11:44:08.302Z,941.35
2017-02-05T11:45:07.786Z,941.31
2017-02-05T11:46:07.307Z,941.34
2017-02-05T11:47:07.758Z,941.31
2017-02-05T11:48:17.252Z,941.28
2017-02-05T11:49:07.760Z,941.29
2017-02-05T11:50:07.398Z,941.30
2017-02-05T11:51:08.865Z,941.26
2017-02-05T11:52:07.357Z,941.30
2017-02-05T11:53:07.884Z,941.26
2017-02-05T11:54:07.614Z,941.24
2017-02-05T11:55:08.313Z,941.25
2017-02-05T11:56:07.800Z,941.20
2017-02-05T11:57:07.409Z,941.19
2017-02-05T11:58:07.960Z,941.23
2017-02-05T11:59:07.473Z,941.23
2017-02-05T12:00:08.024Z,941.19
2017-02-05T12:01:07.632Z,941.17
2017-02-05T12:02:08.147Z,941.17
2017-02-05T12:03:07.734Z,941.21
2017-02-05T12:04:08.284Z,941.16
2017-02-05T12:05:08.175Z,941.11
2017-02-05T12:06:07.756Z,941.05
2017-02-05T12:07:08.292Z,940.98
2017-02-05T12:08:08.069Z,941.01
2017-02-05T12:09:07.572Z,940.94
2017-02-05T12:10:08.236Z,940.91
2017-02-05T12:11:07.995Z,940.89
2017-02-05T12:12:07.489Z,940.91
2017-02-05T12:13:08.056Z,940.86
2017-02-05T12:14:07.625Z,940.84
2017-02-05T12:15:08.178Z,940.84
2017-02-05T12:16:07.739Z,940.82
2017-02-05T12:17:08.473Z,940.80
2017-02-05T12:18:08.069Z,940.80
2017-02-05T12:19:07.643Z,940.80
2017-02-05T12:20:08.287Z,940.80
2017-02-05T12:21:07.768Z,940.86
2017-02-05T12:22:08.283Z,940.81
2017-02-05T12:23:08.043Z,940.82
2017-02-05T12:24:07.580Z,940.82
2017-02-05T12:25:08.227Z,940.79
2017-02-05T12:26:08.002Z,940.81
2017-02-05T12:27:07.507Z,940.79
2017-02-05T12:28:08.156Z,940.81
2017-02-05T12:29:07.939Z,940.78
2017-02-05T12:30:07.477Z,940.74